Terminal Aerodrome Forecast
Issued by NWS

Home | Current Version | Previous Version | Text Only | Print | Product List | Glossary On
Versions: 1 2 3 4 5 6 7 8 9 10 11 12 13 14 15 16 17 18
000
FTUS43 KFGF 281700
TAFBJI
TAF
KBJI 281734Z 2818/2918 12008KT 5SM -SN BKN015 BKN030
      TEMPO 2818/2820 2SM -SN OVC015
     FM282000 11005KT P6SM OVC025
     FM290300 13006KT P6SM OVC007=

USA.gov is the U.S. government's official web portal to all federal, state and local government web resources and services.